createdAt,value
2023-04-29T00:00:38.365Z,8.93
2023-04-29T00:03:08.937Z,9.45
2023-04-29T00:05:39.753Z,9.73
2023-04-29T00:08:13.043Z,8.52
2023-04-29T00:10:44.213Z,8.38
2023-04-29T00:13:14.673Z,8.93
2023-04-29T00:15:45.188Z,8.73
2023-04-29T00:18:15.663Z,9.02
2023-04-29T00:20:46.240Z,8.65
2023-04-29T00:23:19.174Z,8.80
2023-04-29T00:25:49.498Z,9.82
2023-04-29T00:28:20.023Z,8.90
2023-04-29T00:30:50.358Z,8.18
2023-04-29T00:33:20.701Z,9.23
2023-04-29T00:35:51.043Z,8.95
2023-04-29T00:38:24.390Z,8.73
2023-04-29T00:40:54.987Z,7.70
2023-04-29T00:43:25.341Z,8.63
2023-04-29T00:45:55.696Z,9.05
2023-04-29T00:48:26.064Z,9.73
2023-04-29T00:50:56.566Z,8.40
2023-04-29T00:53:29.572Z,9.82
2023-04-29T00:56:00.973Z,8.25
2023-04-29T00:58:33.865Z,9.10
2023-04-29T01:01:04.703Z,9.40
2023-04-29T01:03:35.466Z,8.70
2023-04-29T01:06:12.055Z,7.85
2023-04-29T01:08:48.395Z,7.75
2023-04-29T01:11:20.494Z,9.45
2023-04-29T01:13:54.298Z,7.65
2023-04-29T01:16:27.196Z,8.02
2023-04-29T01:18:58.818Z,8.05
2023-04-29T01:21:31.979Z,8.80
2023-04-29T01:24:04.927Z,7.60
2023-04-29T01:26:36.298Z,7.60
2023-04-29T01:29:13.480Z,8.07
2023-04-29T01:31:48.090Z,7.95
2023-04-29T01:34:21.037Z,7.43
2023-04-29T01:36:57.497Z,7.20
2023-04-29T01:39:35.468Z,7.47
2023-04-29T01:42:08.258Z,7.80
2023-04-29T01:44:38.902Z,6.55
2023-04-29T01:47:09.857Z,7.72
2023-04-29T01:49:40.501Z,7.80
2023-04-29T01:52:10.843Z,8.13
2023-04-29T01:54:43.796Z,9.00
2023-04-29T01:57:14.149Z,9.57
2023-04-29T01:59:44.635Z,10.88
2023-04-29T02:02:15.529Z,9.00
2023-04-29T02:04:45.959Z,9.95
2023-04-29T02:07:16.569Z,10.73
2023-04-29T02:09:49.488Z,9.65
2023-04-29T02:12:19.899Z,10.35
2023-04-29T02:14:50.931Z,10.25
2023-04-29T02:19:51.673Z,9.80
2023-04-29T02:22:22.246Z,10.18
2023-04-29T02:24:55.178Z,9.55
2023-04-29T02:27:26.601Z,10.38
2023-04-29T02:29:56.894Z,10.80
2023-04-29T02:32:27.266Z,11.43
2023-04-29T02:34:58.252Z,9.68
2023-04-29T02:37:29.253Z,10.20
2023-04-29T02:40:02.432Z,9.80
2023-04-29T02:42:32.804Z,10.45
2023-04-29T02:45:04.185Z,9.25
2023-04-29T02:47:34.489Z,9.32
2023-04-29T02:50:05.036Z,10.18
2023-04-29T02:52:35.368Z,9.05
2023-04-29T02:55:08.665Z,8.93
2023-04-29T02:57:39.282Z,8.45
2023-04-29T03:00:10.472Z,9.02
2023-04-29T03:02:40.998Z,8.93
2023-04-29T03:05:11.942Z,8.77
2023-04-29T03:07:42.344Z,8.40
2023-04-29T03:10:15.945Z,8.85
2023-04-29T03:12:46.256Z,9.10
2023-04-29T03:15:17.530Z,8.45
2023-04-29T03:17:48.562Z,8.73
2023-04-29T03:22:48.944Z,8.40
2023-04-29T03:25:22.254Z,8.52
2023-04-29T03:27:52.609Z,8.00
2023-04-29T03:30:22.974Z,8.30
2023-04-29T03:32:53.292Z,7.40
2023-04-29T03:35:23.829Z,7.78
2023-04-29T03:37:54.154Z,8.25
2023-04-29T03:40:27.286Z,7.72
2023-04-29T03:42:57.587Z,7.65
2023-04-29T03:45:27.949Z,7.93
2023-04-29T03:47:58.282Z,7.13
2023-04-29T03:50:29.147Z,8.07
2023-04-29T03:52:59.459Z,8.00
2023-04-29T03:55:32.637Z,7.82
2023-04-29T03:58:02.980Z,7.60
2023-04-29T04:00:34.176Z,7.85
2023-04-29T04:03:05.747Z,7.07
2023-04-29T04:05:36.446Z,6.72
2023-04-29T04:08:06.963Z,6.30
2023-04-29T04:10:40.620Z,7.35
2023-04-29T04:13:10.891Z,6.82
2023-04-29T04:15:42.720Z,5.07
2023-04-29T04:18:13.037Z,5.75
2023-04-29T04:20:43.624Z,5.15
2023-04-29T04:23:13.921Z,4.97
2023-04-29T04:25:52.808Z,4.68
2023-04-29T04:28:23.160Z,5.03
2023-04-29T04:30:53.509Z,5.32
2023-04-29T04:33:23.816Z,4.88
2023-04-29T04:35:54.165Z,5.18
2023-04-29T04:38:25.769Z,4.90
2023-04-29T04:40:58.878Z,5.63
2023-04-29T04:43:29.177Z,4.68
2023-04-29T04:45:59.682Z,5.45
2023-04-29T04:48:30.002Z,4.50
2023-04-29T04:51:00.336Z,4.30
2023-04-29T04:53:30.639Z,5.63
2023-04-29T04:56:07.493Z,4.85
2023-04-29T04:58:37.874Z,5.32
2023-04-29T05:01:08.359Z,5.55
2023-04-29T05:03:38.954Z,5.40
2023-04-29T05:06:09.522Z,6.00
2023-04-29T05:08:39.898Z,5.07
2023-04-29T05:11:19.196Z,4.45
2023-04-29T05:13:49.515Z,5.22
2023-04-29T05:16:20.499Z,5.43
2023-04-29T05:21:23.595Z,5.07
2023-04-29T05:23:53.877Z,5.07
2023-04-29T05:26:26.822Z,5.45
2023-04-29T05:28:57.158Z,5.28
2023-04-29T05:31:28.797Z,5.88
2023-04-29T05:33:59.182Z,4.88
2023-04-29T05:36:30.356Z,5.32
2023-04-29T05:39:00.722Z,4.80
2023-04-29T05:41:33.702Z,5.47
2023-04-29T05:44:04.026Z,5.28
2023-04-29T05:46:40.424Z,5.90
2023-04-29T05:49:10.846Z,6.38
2023-04-29T05:51:43.584Z,6.43
2023-04-29T05:54:13.913Z,5.50
2023-04-29T05:56:47.072Z,6.20
2023-04-29T05:59:17.437Z,5.68
2023-04-29T06:01:47.781Z,6.90
2023-04-29T06:04:18.414Z,7.10
2023-04-29T06:06:49.008Z,5.82
2023-04-29T06:09:27.181Z,6.03
2023-04-29T06:12:01.083Z,5.90
2023-04-29T06:14:31.416Z,6.07
2023-04-29T06:17:02.341Z,6.38
2023-04-29T06:19:33.838Z,5.65
2023-04-29T06:22:04.213Z,5.93
2023-04-29T06:24:34.550Z,5.78
2023-04-29T06:27:07.861Z,5.80
2023-04-29T06:29:38.139Z,5.55
2023-04-29T06:32:09.040Z,6.32
2023-04-29T06:37:09.966Z,4.88
2023-04-29T06:39:40.293Z,5.03
2023-04-29T06:42:13.667Z,5.70
2023-04-29T06:44:44.134Z,4.97
2023-04-29T06:47:15.321Z,5.13
2023-04-29T06:49:46.438Z,5.00
2023-04-29T06:54:46.996Z,4.82
2023-04-29T06:57:21.179Z,5.18
2023-04-29T06:59:51.726Z,5.45
2023-04-29T07:02:22.427Z,4.88
2023-04-29T07:04:52.943Z,5.55
2023-04-29T07:07:24.790Z,5.55
2023-04-29T07:09:55.190Z,4.93
2023-04-29T07:12:28.720Z,5.28
2023-04-29T07:15:00.007Z,4.80
2023-04-29T07:17:33.224Z,5.43
2023-04-29T07:20:04.313Z,4.82
2023-04-29T07:25:04.753Z,4.50
2023-04-29T07:27:38.925Z,5.85
2023-04-29T07:30:10.428Z,5.15
2023-04-29T07:32:41.256Z,4.40
2023-04-29T07:35:12.000Z,4.90
2023-04-29T07:37:44.111Z,5.13
2023-04-29T07:40:14.823Z,4.78
2023-04-29T07:42:47.893Z,3.90
2023-04-29T07:45:18.242Z,3.35
2023-04-29T07:47:48.702Z,4.10
2023-04-29T07:50:19.188Z,4.13
2023-04-29T07:52:49.551Z,3.83
2023-04-29T07:55:19.986Z,4.07
2023-04-29T07:57:52.920Z,3.70
2023-04-29T08:00:23.446Z,3.28
2023-04-29T08:02:55.424Z,3.88
2023-04-29T08:05:26.468Z,3.60
2023-04-29T08:07:57.174Z,4.03
2023-04-29T08:10:27.460Z,3.58
2023-04-29T08:13:00.438Z,3.35
2023-04-29T08:15:30.914Z,4.15
2023-04-29T08:18:01.317Z,3.50
2023-04-29T08:20:31.743Z,3.05
2023-04-29T08:23:02.781Z,3.70
2023-04-29T08:25:33.537Z,3.33
2023-04-29T08:28:06.599Z,3.38
2023-04-29T08:30:36.870Z,4.53
2023-04-29T08:33:07.510Z,3.50
2023-04-29T08:35:38.971Z,3.28
2023-04-29T08:38:09.457Z,3.85
2023-04-29T08:40:40.164Z,3.15
2023-04-29T08:43:13.860Z,3.15
2023-04-29T08:45:44.892Z,4.15
2023-04-29T08:48:15.558Z,3.80
2023-04-29T08:50:46.394Z,3.63
2023-04-29T08:53:17.650Z,3.58
2023-04-29T08:55:48.958Z,3.45
2023-04-29T08:58:22.161Z,3.67
2023-04-29T09:00:53.032Z,3.53
2023-04-29T09:03:28.854Z,3.53
2023-04-29T09:06:00.001Z,3.45
2023-04-29T09:08:30.623Z,3.72
2023-04-29T09:11:01.759Z,3.63
2023-04-29T09:13:35.049Z,4.05
2023-04-29T09:16:06.264Z,3.53
2023-04-29T09:18:46.720Z,3.38
2023-04-29T09:21:19.666Z,3.10
2023-04-29T09:23:53.312Z,2.83
2023-04-29T09:26:24.350Z,2.92
2023-04-29T09:29:11.501Z,3.38
2023-04-29T09:31:42.364Z,3.63
2023-04-29T09:34:13.530Z,3.40
2023-04-29T09:36:48.120Z,2.70
2023-04-29T09:39:19.612Z,3.05
2023-04-29T09:42:03.384Z,3.10
2023-04-29T09:44:38.628Z,3.53
2023-04-29T09:47:09.760Z,2.85
2023-04-29T09:49:41.391Z,3.10
2023-04-29T09:52:13.189Z,3.22
2023-04-29T09:54:44.308Z,2.97
2023-04-29T09:57:16.035Z,3.10
2023-04-29T09:59:49.087Z,2.90
2023-04-29T10:02:20.950Z,2.70
2023-04-29T10:04:52.306Z,3.20
2023-04-29T10:07:23.355Z,3.00
2023-04-29T10:09:53.691Z,2.47
2023-04-29T10:12:24.640Z,2.80
2023-04-29T10:15:00.384Z,2.38
2023-04-29T10:17:36.721Z,3.08
2023-04-29T10:20:09.293Z,2.22
2023-04-29T10:22:44.190Z,2.38
2023-04-29T10:25:14.948Z,2.55
2023-04-29T10:30:19.558Z,2.17
2023-04-29T10:32:52.076Z,2.30
2023-04-29T10:35:26.026Z,2.20
2023-04-29T10:37:57.285Z,2.08
2023-04-29T10:40:31.591Z,1.88
2023-04-29T10:43:02.065Z,2.50
2023-04-29T10:45:36.623Z,2.80
2023-04-29T10:48:19.128Z,2.20
2023-04-29T10:51:04.770Z,2.90
2023-04-29T10:53:35.871Z,2.78
2023-04-29T10:56:11.645Z,2.38
2023-04-29T10:58:46.293Z,2.35
2023-04-29T11:01:20.555Z,2.10
2023-04-29T11:03:55.332Z,2.55
2023-04-29T11:06:27.009Z,2.25
2023-04-29T11:09:04.644Z,2.55
2023-04-29T11:12:03.455Z,3.03
2023-04-29T11:14:36.729Z,2.75
2023-04-29T11:17:12.244Z,3.05
2023-04-29T11:19:45.339Z,2.42
2023-04-29T11:22:30.522Z,2.40
2023-04-29T11:25:02.696Z,3.05
2023-04-29T11:27:34.436Z,2.40
2023-04-29T11:30:05.565Z,2.53
2023-04-29T11:32:40.714Z,2.40
2023-04-29T11:35:12.191Z,2.42
2023-04-29T11:37:42.898Z,1.92
2023-04-29T11:42:48.385Z,2.13
2023-04-29T11:45:20.770Z,1.85
2023-04-29T11:47:55.808Z,1.92
2023-04-29T11:50:26.741Z,2.15
2023-04-29T11:52:57.230Z,1.83
2023-04-29T11:55:28.490Z,1.88
2023-04-29T11:57:58.902Z,1.50
2023-04-29T12:00:29.265Z,1.23
2023-04-29T12:03:02.479Z,1.63
2023-04-29T12:05:33.065Z,1.33
2023-04-29T12:08:03.516Z,2.47
2023-04-29T12:10:33.973Z,2.10
2023-04-29T12:13:04.652Z,1.52
2023-04-29T12:15:36.059Z,2.28
2023-04-29T12:18:10.151Z,1.45
2023-04-29T12:20:40.800Z,1.80
2023-04-29T12:23:18.538Z,1.63
2023-04-29T12:25:53.286Z,1.48
2023-04-29T12:28:24.080Z,1.75
2023-04-29T12:33:28.378Z,1.75
2023-04-29T12:35:59.772Z,1.83
2023-04-29T12:38:30.926Z,1.30
2023-04-29T12:41:03.026Z,1.77
2023-04-29T12:43:33.914Z,1.38
2023-04-29T12:46:04.912Z,1.25
2023-04-29T12:48:39.116Z,1.95
2023-04-29T12:51:10.172Z,1.70
2023-04-29T12:53:40.535Z,1.55
2023-04-29T12:56:12.020Z,1.80
2023-04-29T12:58:42.669Z,2.03
2023-04-29T13:01:16.608Z,1.55
2023-04-29T13:03:52.032Z,1.77
2023-04-29T13:06:23.036Z,2.00
2023-04-29T13:08:54.156Z,2.22
2023-04-29T13:11:24.700Z,1.60
2023-04-29T13:13:55.072Z,2.03
2023-04-29T13:16:25.579Z,1.52
2023-04-29T13:19:05.217Z,2.00
2023-04-29T13:21:43.163Z,1.98
2023-04-29T13:24:13.492Z,2.35
2023-04-29T13:26:43.807Z,1.80
2023-04-29T13:29:14.156Z,1.55
2023-04-29T13:31:44.541Z,1.65
2023-04-29T13:34:17.740Z,1.52
2023-04-29T13:36:48.164Z,1.60
2023-04-29T13:39:20.485Z,1.23
2023-04-29T13:41:51.211Z,1.13
2023-04-29T13:47:01.854Z,1.02
2023-04-29T13:50:14.801Z,0.90
2023-04-29T13:53:18.113Z,1.20
2023-04-29T13:56:11.629Z,1.67
2023-04-29T14:01:10.173Z,1.50
2023-04-29T14:03:31.402Z,1.63
2023-04-29T14:06:06.828Z,1.48
2023-04-29T14:08:37.128Z,1.55
2023-04-29T14:11:07.508Z,1.60
2023-04-29T14:13:37.821Z,1.45
2023-04-29T14:16:09.642Z,1.63
2023-04-29T14:18:40.042Z,1.45
2023-04-29T14:21:14.125Z,1.20
2023-04-29T14:23:44.416Z,1.10
2023-04-29T14:28:48.638Z,1.30
2023-04-29T14:31:19.127Z,1.02
2023-04-29T14:33:51.325Z,1.20
2023-04-29T14:36:24.386Z,1.27
2023-04-29T14:38:54.793Z,1.45
2023-04-29T14:41:25.469Z,9.00
2023-04-29T14:46:25.895Z,1.85
2023-04-29T14:48:56.403Z,1.30
2023-04-29T14:51:30.038Z,1.50
2023-04-29T14:54:00.366Z,1.30
2023-04-29T14:56:30.750Z,2.00
2023-04-29T14:59:01.122Z,1.00
2023-04-29T15:01:32.420Z,1.27
2023-04-29T15:04:03.909Z,1.95
2023-04-29T15:06:37.745Z,2.40
2023-04-29T15:09:08.177Z,3.05
2023-04-29T15:11:38.549Z,2.40
2023-04-29T15:14:08.941Z,2.50
2023-04-29T15:16:39.405Z,2.20
2023-04-29T15:19:09.797Z,2.70
2023-04-29T15:21:42.808Z,2.45
2023-04-29T15:24:13.084Z,2.92
2023-04-29T15:26:43.427Z,2.78
2023-04-29T15:29:13.858Z,2.80
2023-04-29T15:31:44.621Z,3.20
2023-04-29T15:34:14.979Z,3.30
2023-04-29T15:36:47.922Z,3.50
2023-04-29T15:39:18.260Z,3.97
2023-04-29T15:41:48.597Z,3.40
2023-04-29T15:44:19.058Z,3.30
2023-04-29T15:46:49.491Z,3.28
2023-04-29T15:49:19.826Z,3.17
2023-04-29T15:51:52.787Z,3.67
2023-04-29T15:54:23.356Z,2.95
2023-04-29T15:56:53.863Z,3.20
2023-04-29T15:59:24.181Z,3.83
2023-04-29T16:01:54.558Z,3.85
2023-04-29T16:04:24.927Z,2.80
2023-04-29T16:06:58.785Z,2.75
2023-04-29T16:09:29.081Z,3.85
2023-04-29T16:11:59.525Z,3.70
2023-04-29T16:14:30.228Z,3.30
2023-04-29T16:17:00.718Z,3.40
2023-04-29T16:19:31.020Z,3.00
2023-04-29T16:22:03.992Z,3.67
2023-04-29T16:24:34.323Z,2.80
2023-04-29T16:27:04.674Z,3.17
2023-04-29T16:29:34.988Z,3.20
2023-04-29T16:32:05.318Z,2.83
2023-04-29T16:34:35.811Z,2.75
2023-04-29T16:37:12.724Z,2.95
2023-04-29T16:39:43.891Z,3.38
2023-04-29T16:42:14.355Z,2.47
2023-04-29T16:44:44.637Z,2.70
2023-04-29T16:47:14.973Z,2.33
2023-04-29T16:49:45.292Z,2.42
2023-04-29T16:52:18.232Z,2.55
2023-04-29T16:54:48.508Z,2.75
2023-04-29T16:57:19.486Z,2.65
2023-04-29T16:59:49.779Z,2.90
2023-04-29T17:02:20.154Z,3.90
2023-04-29T17:04:50.518Z,2.72
2023-04-29T17:07:23.590Z,3.10
2023-04-29T17:09:55.158Z,3.10
2023-04-29T17:12:25.742Z,2.50
2023-04-29T17:14:56.302Z,2.97
2023-04-29T17:17:26.732Z,3.88
2023-04-29T17:19:57.353Z,2.72
2023-04-29T17:22:30.433Z,2.70
2023-04-29T17:25:02.276Z,2.20
2023-04-29T17:27:32.625Z,2.65
2023-04-29T17:30:02.939Z,2.10
2023-04-29T17:32:39.220Z,2.42
2023-04-29T17:35:10.653Z,2.15
2023-04-29T17:37:43.622Z,2.15
2023-04-29T17:40:14.223Z,3.40
2023-04-29T17:42:44.687Z,3.78
2023-04-29T17:45:15.793Z,2.72
2023-04-29T17:47:46.170Z,3.00
2023-04-29T17:50:16.470Z,2.35
2023-04-29T17:52:49.404Z,2.65
2023-04-29T17:55:19.840Z,2.80
2023-04-29T17:57:50.180Z,2.72
2023-04-29T18:00:20.494Z,2.58
2023-04-29T18:02:50.930Z,2.22
2023-04-29T18:05:21.300Z,2.50
2023-04-29T18:07:54.339Z,2.15
2023-04-29T18:10:24.670Z,2.47
2023-04-29T18:12:55.133Z,2.08
2023-04-29T18:15:25.484Z,1.90
2023-04-29T18:17:55.851Z,2.20
2023-04-29T18:20:26.487Z,2.53
2023-04-29T18:22:59.454Z,2.65
2023-04-29T18:25:29.919Z,2.17
2023-04-29T18:28:13.712Z,2.63
2023-04-29T18:30:50.398Z,2.47
2023-04-29T18:33:20.936Z,2.10
2023-04-29T18:35:51.299Z,2.70
2023-04-29T18:38:24.253Z,2.55
2023-04-29T18:40:54.586Z,2.13
2023-04-29T18:43:28.778Z,2.50
2023-04-29T18:45:59.222Z,2.15
2023-04-29T18:48:31.172Z,2.35
2023-04-29T18:51:04.506Z,2.30
2023-04-29T18:53:37.495Z,2.55
2023-04-29T18:56:08.559Z,2.00
2023-04-29T18:58:38.979Z,1.80
2023-04-29T19:01:09.268Z,1.77
2023-04-29T19:03:40.503Z,2.28
2023-04-29T19:06:10.875Z,2.75
2023-04-29T19:08:44.087Z,2.92
2023-04-29T19:11:14.373Z,2.88
2023-04-29T19:13:44.765Z,2.65
2023-04-29T19:16:15.257Z,3.05
2023-04-29T19:18:45.697Z,2.67
2023-04-29T19:21:16.429Z,2.63
2023-04-29T19:23:49.506Z,3.17
2023-04-29T19:26:19.828Z,3.08
2023-04-29T19:28:50.136Z,3.00
2023-04-29T19:31:20.447Z,2.80
2023-04-29T19:33:52.697Z,3.05
2023-04-29T19:36:23.053Z,2.83
2023-04-29T19:38:56.028Z,2.67
2023-04-29T19:41:26.388Z,2.65
2023-04-29T19:43:56.832Z,2.83
2023-04-29T19:46:27.148Z,2.85
2023-04-29T19:48:57.606Z,2.60
2023-04-29T19:51:27.957Z,2.70
2023-04-29T19:54:02.532Z,2.65
2023-04-29T19:56:32.836Z,2.58
2023-04-29T19:59:03.228Z,2.80
2023-04-29T20:01:33.934Z,2.83
2023-04-29T20:04:04.402Z,2.83
2023-04-29T20:06:35.304Z,3.58
2023-04-29T20:09:09.731Z,3.88
2023-04-29T20:11:40.069Z,3.42
2023-04-29T20:14:10.433Z,3.42
2023-04-29T20:16:40.809Z,2.67
2023-04-29T20:19:12.152Z,3.00
2023-04-29T20:21:42.501Z,3.13
2023-04-29T20:24:15.651Z,2.97
2023-04-29T20:26:45.999Z,2.70
2023-04-29T20:29:16.598Z,3.13
2023-04-29T20:31:47.074Z,2.65
2023-04-29T20:34:17.897Z,2.65
2023-04-29T20:36:48.588Z,3.45
2023-04-29T20:39:21.857Z,2.80
2023-04-29T20:41:52.188Z,2.97
2023-04-29T20:44:22.771Z,2.55
2023-04-29T20:46:53.323Z,2.90
2023-04-29T20:49:24.812Z,2.92
2023-04-29T20:51:55.142Z,2.80
2023-04-29T20:54:28.302Z,2.97
2023-04-29T20:56:58.607Z,3.17
2023-04-29T20:59:29.035Z,3.30
2023-04-29T21:01:59.335Z,2.95
2023-04-29T21:04:29.713Z,2.85
2023-04-29T21:07:00.097Z,2.80
2023-04-29T21:09:33.275Z,3.33
2023-04-29T21:12:05.547Z,2.85
2023-04-29T21:14:35.971Z,2.53
2023-04-29T21:17:06.335Z,2.70
2023-04-29T21:19:38.688Z,2.88
2023-04-29T21:22:09.078Z,2.88
2023-04-29T21:24:42.039Z,3.08
2023-04-29T21:27:12.313Z,2.78
2023-04-29T21:29:42.663Z,2.30
2023-04-29T21:32:12.953Z,2.90
2023-04-29T21:34:43.448Z,3.13
2023-04-29T21:37:13.780Z,3.10
2023-04-29T21:39:46.703Z,2.33
2023-04-29T21:42:21.429Z,2.25
2023-04-29T21:44:52.268Z,3.05
2023-04-29T21:47:22.777Z,2.47
2023-04-29T21:49:53.451Z,2.72
2023-04-29T21:52:24.025Z,2.50
2023-04-29T21:54:56.988Z,2.20
2023-04-29T21:57:42.769Z,2.92
2023-04-29T22:00:33.233Z,2.58
2023-04-29T22:03:03.942Z,2.40
2023-04-29T22:05:34.300Z,2.47
2023-04-29T22:08:07.585Z,2.30
2023-04-29T22:10:41.755Z,2.67
2023-04-29T22:13:12.150Z,2.20
2023-04-29T22:15:42.957Z,2.38
2023-04-29T22:18:13.311Z,2.10
2023-04-29T22:20:43.760Z,1.95
2023-04-29T22:23:14.086Z,1.90
2023-04-29T22:25:47.143Z,1.70
2023-04-29T22:28:18.032Z,1.40
2023-04-29T22:30:48.486Z,1.42
2023-04-29T22:33:18.800Z,1.60
2023-04-29T22:35:49.129Z,1.55
2023-04-29T22:38:19.501Z,1.65
2023-04-29T22:40:55.415Z,2.08
2023-04-29T22:43:25.878Z,2.00
2023-04-29T22:45:56.422Z,2.45
2023-04-29T22:48:28.116Z,2.10
2023-04-29T22:50:59.604Z,1.98
2023-04-29T22:53:30.157Z,2.13
2023-04-29T22:56:03.557Z,1.83
2023-04-29T22:58:34.100Z,1.52
2023-04-29T23:01:04.653Z,1.70
2023-04-29T23:03:35.008Z,1.67
2023-04-29T23:06:05.523Z,2.60
2023-04-29T23:08:36.041Z,2.20
2023-04-29T23:11:09.158Z,2.45
2023-04-29T23:13:39.456Z,2.50
2023-04-29T23:16:11.090Z,2.50
2023-04-29T23:18:41.506Z,2.70
2023-04-29T23:21:11.946Z,2.53
2023-04-29T23:23:42.369Z,2.63
2023-04-29T23:26:15.340Z,2.03
2023-04-29T23:28:46.011Z,2.05
2023-04-29T23:31:16.525Z,1.77
2023-04-29T23:33:46.967Z,1.58
2023-04-29T23:36:17.298Z,5.35
2023-04-29T23:38:47.570Z,2.70
2023-04-29T23:41:21.056Z,1.55
2023-04-29T23:43:51.336Z,1.67
2023-04-29T23:46:21.759Z,1.58
2023-04-29T23:48:52.096Z,1.90
2023-04-29T23:51:22.416Z,2.28
2023-04-29T23:53:52.936Z,2.30
2023-04-29T23:56:29.213Z,2.83
2023-04-29T23:58:59.662Z,1.55
